Terminal Aerodrome Forecast
Issued by NWS

Home | Current Version | Previous Version | Graphics & Text | Print | Product List | Glossary On
Versions: 1 2 3 4 5 6 7 8 9 10 11 12 13 14 15
781
FTUS43 KUNR 170500 AAB
TAFGCC
TAF AMD
KGCC 170500Z 1705/1724 22022G32KT P6SM SCT250
     FM171200 21013KT P6SM SCT250=

USA.gov is the U.S. government's official web portal to all federal, state and local government web resources and services.